sensor_id;sensor_type;location;lat;lon;timestamp;pressure;altitude;pressure_sealevel;temperature;humidity
21520;BME280;10921;53.614;9.882;2023-04-20T00:00:23;102100.03;;;11.55;37.55
21520;BME280;10921;53.614;9.882;2023-04-20T00:02:50;102072.66;;;11.41;37.48
21520;BME280;10921;53.614;9.882;2023-04-20T00:05:17;102114.97;;;11.58;37.75
21520;BME280;10921;53.614;9.882;2023-04-20T00:07:44;102093.09;;;11.53;38.07
21520;BME280;10921;53.614;9.882;2023-04-20T00:10:10;102089.44;;;11.54;38.17
21520;BME280;10921;53.614;9.882;2023-04-20T00:12:37;102093.81;;;11.55;38.43
21520;BME280;10921;53.614;9.882;2023-04-20T00:15:04;102078.25;;;11.49;38.63
21520;BME280;10921;53.614;9.882;2023-04-20T00:17:31;102089.34;;;11.55;39.59
21520;BME280;10921;53.614;9.882;2023-04-20T00:19:57;102087.00;;;11.51;39.35
21520;BME280;10921;53.614;9.882;2023-04-20T00:22:24;102076.50;;;11.37;39.41
21520;BME280;10921;53.614;9.882;2023-04-20T00:24:51;102088.69;;;11.41;39.63
21520;BME280;10921;53.614;9.882;2023-04-20T00:27:18;102062.38;;;11.23;40.03
21520;BME280;10921;53.614;9.882;2023-04-20T00:29:44;102054.56;;;11.09;40.67
21520;BME280;10921;53.614;9.882;2023-04-20T00:32:11;102091.91;;;11.33;40.43
21520;BME280;10921;53.614;9.882;2023-04-20T00:34:37;102052.03;;;11.19;41.03
21520;BME280;10921;53.614;9.882;2023-04-20T00:37:04;102072.28;;;11.10;41.25
21520;BME280;10921;53.614;9.882;2023-04-20T00:39:31;102086.75;;;11.19;41.61
21520;BME280;10921;53.614;9.882;2023-04-20T00:42:05;102088.00;;;11.15;42.24
21520;BME280;10921;53.614;9.882;2023-04-20T00:44:32;102079.47;;;11.10;43.32
21520;BME280;10921;53.614;9.882;2023-04-20T00:46:59;102094.84;;;11.06;46.23
21520;BME280;10921;53.614;9.882;2023-04-20T00:49:27;102094.16;;;10.91;47.34
21520;BME280;10921;53.614;9.882;2023-04-20T00:51:59;102084.84;;;10.73;48.57
21520;BME280;10921;53.614;9.882;2023-04-20T00:54:27;102084.50;;;10.54;48.27
21520;BME280;10921;53.614;9.882;2023-04-20T00:56:55;102070.34;;;10.28;49.18
21520;BME280;10921;53.614;9.882;2023-04-20T00:59:23;102060.63;;;10.14;48.64
21520;BME280;10921;53.614;9.882;2023-04-20T01:01:50;102046.88;;;9.95;48.98
21520;BME280;10921;53.614;9.882;2023-04-20T01:04:17;102047.72;;;9.96;49.59
21520;BME280;10921;53.614;9.882;2023-04-20T01:06:44;102070.59;;;9.87;49.31
21520;BME280;10921;53.614;9.882;2023-04-20T01:09:11;102051.81;;;9.76;50.72
21520;BME280;10921;53.614;9.882;2023-04-20T01:11:38;102062.38;;;9.77;50.00
21520;BME280;10921;53.614;9.882;2023-04-20T01:14:05;102045.00;;;9.72;50.45
21520;BME280;10921;53.614;9.882;2023-04-20T01:16:32;102047.56;;;9.73;50.80
21520;BME280;10921;53.614;9.882;2023-04-20T01:19:00;102052.03;;;9.73;50.94
21520;BME280;10921;53.614;9.882;2023-04-20T01:21:26;102037.00;;;9.72;49.97
21520;BME280;10921;53.614;9.882;2023-04-20T01:23:53;102041.38;;;9.73;50.07
21520;BME280;10921;53.614;9.882;2023-04-20T01:26:22;102036.13;;;9.71;51.63
21520;BME280;10921;53.614;9.882;2023-04-20T01:28:48;101996.78;;;9.49;51.62
21520;BME280;10921;53.614;9.882;2023-04-20T01:31:15;101994.03;;;9.38;52.05
21520;BME280;10921;53.614;9.882;2023-04-20T01:33:41;102023.88;;;9.56;52.46
21520;BME280;10921;53.614;9.882;2023-04-20T01:36:08;102040.94;;;9.53;53.18
21520;BME280;10921;53.614;9.882;2023-04-20T01:38:35;102005.00;;;9.34;52.89
21520;BME280;10921;53.614;9.882;2023-04-20T01:41:03;102008.31;;;9.37;52.64
21520;BME280;10921;53.614;9.882;2023-04-20T01:43:30;102020.47;;;9.41;53.22
21520;BME280;10921;53.614;9.882;2023-04-20T01:45:58;102031.78;;;9.45;53.14
21520;BME280;10921;53.614;9.882;2023-04-20T01:48:25;102027.06;;;9.48;52.76
21520;BME280;10921;53.614;9.882;2023-04-20T01:50:51;101967.38;;;9.13;52.45
21520;BME280;10921;53.614;9.882;2023-04-20T01:53:18;102031.97;;;9.42;53.35
21520;BME280;10921;53.614;9.882;2023-04-20T01:55:46;102032.09;;;9.53;53.73
21520;BME280;10921;53.614;9.882;2023-04-20T01:58:13;102022.59;;;9.49;54.53
21520;BME280;10921;53.614;9.882;2023-04-20T02:00:40;101994.56;;;9.31;55.03
21520;BME280;10921;53.614;9.882;2023-04-20T02:03:06;102020.47;;;9.41;55.20
21520;BME280;10921;53.614;9.882;2023-04-20T02:05:33;101974.31;;;9.15;55.60
21520;BME280;10921;53.614;9.882;2023-04-20T02:07:59;101995.38;;;9.18;55.83
21520;BME280;10921;53.614;9.882;2023-04-20T02:10:26;102009.25;;;9.24;56.63
21520;BME280;10921;53.614;9.882;2023-04-20T02:12:53;102005.84;;;9.22;56.85
21520;BME280;10921;53.614;9.882;2023-04-20T02:15:19;102028.44;;;9.16;57.16
21520;BME280;10921;53.614;9.882;2023-04-20T02:17:46;102017.13;;;9.12;57.03
21520;BME280;10921;53.614;9.882;2023-04-20T02:20:17;102018.94;;;9.12;58.11
21520;BME280;10921;53.614;9.882;2023-04-20T02:22:47;102012.31;;;9.17;58.21
21520;BME280;10921;53.614;9.882;2023-04-20T02:25:13;101986.44;;;9.07;58.64
21520;BME280;10921;53.614;9.882;2023-04-20T02:27:40;101993.06;;;9.14;58.59
21520;BME280;10921;53.614;9.882;2023-04-20T02:30:07;101993.06;;;9.14;59.11
21520;BME280;10921;53.614;9.882;2023-04-20T02:32:34;101941.25;;;8.80;58.97
21520;BME280;10921;53.614;9.882;2023-04-20T02:35:02;101956.78;;;8.86;58.75
21520;BME280;10921;53.614;9.882;2023-04-20T02:37:30;101979.50;;;9.04;59.60
21520;BME280;10921;53.614;9.882;2023-04-20T02:39:56;101983.00;;;9.05;59.29
21520;BME280;10921;53.614;9.882;2023-04-20T02:42:23;101995.56;;;9.03;59.79
21520;BME280;10921;53.614;9.882;2023-04-20T02:44:49;101991.00;;;9.05;59.93
21520;BME280;10921;53.614;9.882;2023-04-20T02:47:17;101977.47;;;9.08;59.41
21520;BME280;10921;53.614;9.882;2023-04-20T02:49:44;101961.59;;;8.94;60.10
21520;BME280;10921;53.614;9.882;2023-04-20T02:52:11;101974.72;;;9.09;59.74
21520;BME280;10921;53.614;9.882;2023-04-20T02:54:37;101957.97;;;8.95;59.68
21520;BME280;10921;53.614;9.882;2023-04-20T02:57:04;101980.91;;;9.10;59.55
21520;BME280;10921;53.614;9.882;2023-04-20T02:59:30;101973.66;;;9.12;60.55
21520;BME280;10921;53.614;9.882;2023-04-20T03:01:57;101975.16;;;9.16;59.81
21520;BME280;10921;53.614;9.882;2023-04-20T03:04:23;101977.69;;;9.17;59.97
21520;BME280;10921;53.614;9.882;2023-04-20T03:06:51;101970.47;;;9.20;60.35
21520;BME280;10921;53.614;9.882;2023-04-20T03:09:19;101945.31;;;9.11;59.52
21520;BME280;10921;53.614;9.882;2023-04-20T03:11:45;101968.44;;;9.23;59.76
21520;BME280;10921;53.614;9.882;2023-04-20T03:14:12;101964.06;;;9.22;60.21
21520;BME280;10921;53.614;9.882;2023-04-20T03:16:38;101976.34;;;9.25;59.85
21520;BME280;10921;53.614;9.882;2023-04-20T03:19:05;101981.56;;;9.26;60.60
21520;BME280;10921;53.614;9.882;2023-04-20T03:21:31;101981.47;;;9.28;60.27
21520;BME280;10921;53.614;9.882;2023-04-20T03:23:59;101974.53;;;9.25;60.85
21520;BME280;10921;53.614;9.882;2023-04-20T03:26:25;101960.75;;;9.18;60.60
21520;BME280;10921;53.614;9.882;2023-04-20T03:28:52;101954.59;;;9.18;61.13
21520;BME280;10921;53.614;9.882;2023-04-20T03:31:18;101971.22;;;9.22;61.28
21520;BME280;10921;53.614;9.882;2023-04-20T03:33:45;101956.28;;;9.06;62.35
21520;BME280;10921;53.614;9.882;2023-04-20T03:36:12;101972.72;;;9.13;62.70
21520;BME280;10921;53.614;9.882;2023-04-20T03:38:38;101971.00;;;8.99;63.19
21520;BME280;10921;53.614;9.882;2023-04-20T03:41:05;101969.28;;;8.98;63.38
21520;BME280;10921;53.614;9.882;2023-04-20T03:43:33;101987.25;;;8.95;64.34
21520;BME280;10921;53.614;9.882;2023-04-20T03:46:00;101983.28;;;8.88;65.32
21520;BME280;10921;53.614;9.882;2023-04-20T03:48:27;101981.06;;;8.81;65.67
21520;BME280;10921;53.614;9.882;2023-04-20T03:50:53;101965.06;;;8.69;66.66
21520;BME280;10921;53.614;9.882;2023-04-20T03:53:19;101969.53;;;8.68;66.88
21520;BME280;10921;53.614;9.882;2023-04-20T03:55:46;101992.06;;;8.63;67.45
21520;BME280;10921;53.614;9.882;2023-04-20T03:58:13;101955.63;;;8.51;68.20
21520;BME280;10921;53.614;9.882;2023-04-20T04:00:39;101979.16;;;8.57;68.37
21520;BME280;10921;53.614;9.882;2023-04-20T04:03:06;101965.41;;;8.50;69.63
21520;BME280;10921;53.614;9.882;2023-04-20T04:05:33;101972.94;;;8.43;70.12
21520;BME280;10921;53.614;9.882;2023-04-20T04:08:00;101958.53;;;8.33;70.48
21520;BME280;10921;53.614;9.882;2023-04-20T04:10:26;101934.25;;;8.11;70.69
21520;BME280;10921;53.614;9.882;2023-04-20T04:12:53;101940.97;;;8.17;70.95
21520;BME280;10921;53.614;9.882;2023-04-20T04:15:19;101945.63;;;8.13;70.86
21520;BME280;10921;53.614;9.882;2023-04-20T04:17:47;101929.34;;;8.05;72.30
21520;BME280;10921;53.614;9.882;2023-04-20T04:20:13;101961.41;;;8.16;73.31
21520;BME280;10921;53.614;9.882;2023-04-20T04:22:40;101921.84;;;7.97;73.35
21520;BME280;10921;53.614;9.882;2023-04-20T04:25:07;101961.50;;;8.15;73.53
21520;BME280;10921;53.614;9.882;2023-04-20T04:27:34;101938.84;;;7.95;73.97
21520;BME280;10921;53.614;9.882;2023-04-20T04:30:00;101971.38;;;8.12;74.16
21520;BME280;10921;53.614;9.882;2023-04-20T04:32:28;101962.00;;;8.07;74.64
21520;BME280;10921;53.614;9.882;2023-04-20T04:34:54;101981.38;;;8.09;74.96
21520;BME280;10921;53.614;9.882;2023-04-20T04:37:21;101977.09;;;8.06;75.12
21520;BME280;10921;53.614;9.882;2023-04-20T04:39:49;101985.63;;;7.97;75.33
21520;BME280;10921;53.614;9.882;2023-04-20T04:42:16;101984.97;;;8.08;75.53
21520;BME280;10921;53.614;9.882;2023-04-20T04:44:42;101969.78;;;7.96;75.77
21520;BME280;10921;53.614;9.882;2023-04-20T04:47:10;101992.97;;;8.08;75.99
21520;BME280;10921;53.614;9.882;2023-04-20T04:49:39;101996.34;;;8.10;75.88
21520;BME280;10921;53.614;9.882;2023-04-20T04:52:07;101988.97;;;8.01;76.05
21520;BME280;10921;53.614;9.882;2023-04-20T04:54:34;101972.56;;;7.94;76.41
21520;BME280;10921;53.614;9.882;2023-04-20T04:57:01;101978.84;;;7.93;76.81
21520;BME280;10921;53.614;9.882;2023-04-20T04:59:27;101991.03;;;8.10;77.08
21520;BME280;10921;53.614;9.882;2023-04-20T05:01:54;101990.06;;;8.11;77.34
21520;BME280;10921;53.614;9.882;2023-04-20T05:04:20;101988.28;;;8.11;76.55
21520;BME280;10921;53.614;9.882;2023-04-20T05:06:47;101975.47;;;8.04;76.47
21520;BME280;10921;53.614;9.882;2023-04-20T05:09:13;101975.66;;;8.01;77.11
21520;BME280;10921;53.614;9.882;2023-04-20T05:11:41;101984.22;;;8.06;77.06
21520;BME280;10921;53.614;9.882;2023-04-20T05:14:08;101999.66;;;8.13;77.52
21520;BME280;10921;53.614;9.882;2023-04-20T05:16:34;101978.03;;;8.05;78.16
21520;BME280;10921;53.614;9.882;2023-04-20T05:19:01;101986.47;;;8.12;78.02
21520;BME280;10921;53.614;9.882;2023-04-20T05:21:27;101994.16;;;8.17;78.17
21520;BME280;10921;53.614;9.882;2023-04-20T05:23:54;101988.19;;;8.13;78.33
21520;BME280;10921;53.614;9.882;2023-04-20T05:26:20;101990.47;;;8.19;78.27
21520;BME280;10921;53.614;9.882;2023-04-20T05:28:47;101957.06;;;8.01;78.19
21520;BME280;10921;53.614;9.882;2023-04-20T05:31:13;101968.47;;;8.03;79.15
21520;BME280;10921;53.614;9.882;2023-04-20T05:33:40;101995.78;;;8.19;79.36
21520;BME280;10921;53.614;9.882;2023-04-20T05:36:09;102005.38;;;8.22;79.37
21520;BME280;10921;53.614;9.882;2023-04-20T05:38:36;101989.97;;;8.12;79.28
21520;BME280;10921;53.614;9.882;2023-04-20T05:41:03;102002.91;;;8.19;79.36
21520;BME280;10921;53.614;9.882;2023-04-20T05:43:30;101998.44;;;8.19;79.80
21520;BME280;10921;53.614;9.882;2023-04-20T05:45:56;102014.09;;;8.24;79.84
21520;BME280;10921;53.614;9.882;2023-04-20T05:48:23;102001.94;;;8.20;79.67
21520;BME280;10921;53.614;9.882;2023-04-20T05:50:55;102009.41;;;8.27;79.70
21520;BME280;10921;53.614;9.882;2023-04-20T05:53:21;101990.25;;;8.22;79.74
21520;BME280;10921;53.614;9.882;2023-04-20T05:55:48;101993.03;;;8.21;80.69
21520;BME280;10921;53.614;9.882;2023-04-20T05:58:15;102012.94;;;8.28;80.84
21520;BME280;10921;53.614;9.882;2023-04-20T06:00:42;101994.31;;;8.28;80.41
21520;BME280;10921;53.614;9.882;2023-04-20T06:03:09;101999.00;;;8.24;80.69
21520;BME280;10921;53.614;9.882;2023-04-20T06:05:36;101935.84;;;7.87;80.86
21520;BME280;10921;53.614;9.882;2023-04-20T06:08:03;101974.97;;;8.11;81.29
21520;BME280;10921;53.614;9.882;2023-04-20T06:10:30;101975.75;;;8.13;81.44
21520;BME280;10921;53.614;9.882;2023-04-20T06:12:59;102004.31;;;8.24;81.71
21520;BME280;10921;53.614;9.882;2023-04-20T06:15:25;102004.00;;;8.29;81.96
21520;BME280;10921;53.614;9.882;2023-04-20T06:17:52;102004.69;;;8.32;82.12
21520;BME280;10921;53.614;9.882;2023-04-20T06:20:18;101999.09;;;8.37;82.37
21520;BME280;10921;53.614;9.882;2023-04-20T06:22:45;102005.03;;;8.40;82.30
21520;BME280;10921;53.614;9.882;2023-04-20T06:25:12;102000.47;;;8.42;82.49
21520;BME280;10921;53.614;9.882;2023-04-20T06:27:43;101994.31;;;8.42;82.38
21520;BME280;10921;53.614;9.882;2023-04-20T06:30:17;101992.31;;;8.45;82.01
21520;BME280;10921;53.614;9.882;2023-04-20T06:32:44;101993.63;;;8.53;82.35
21520;BME280;10921;53.614;9.882;2023-04-20T06:35:11;101994.38;;;8.55;82.42
21520;BME280;10921;53.614;9.882;2023-04-20T06:37:37;101985.84;;;8.50;82.11
21520;BME280;10921;53.614;9.882;2023-04-20T06:40:06;102001.94;;;8.61;82.56
21520;BME280;10921;53.614;9.882;2023-04-20T06:42:35;102000.81;;;8.65;82.45
21520;BME280;10921;53.614;9.882;2023-04-20T06:45:04;101994.81;;;8.61;82.91
21520;BME280;10921;53.614;9.882;2023-04-20T06:47:31;102002.41;;;8.67;82.96
21520;BME280;10921;53.614;9.882;2023-04-20T06:50:00;101999.00;;;8.65;82.32
21520;BME280;10921;53.614;9.882;2023-04-20T06:52:27;101999.84;;;8.66;82.33
21520;BME280;10921;53.614;9.882;2023-04-20T06:54:53;102005.94;;;8.68;83.05
21520;BME280;10921;53.614;9.882;2023-04-20T06:57:20;101999.28;;;8.61;82.81
21520;BME280;10921;53.614;9.882;2023-04-20T06:59:47;101983.63;;;8.56;82.40
21520;BME280;10921;53.614;9.882;2023-04-20T07:02:13;102002.41;;;8.67;82.82
21520;BME280;10921;53.614;9.882;2023-04-20T07:04:40;102018.06;;;8.72;82.90
21520;BME280;10921;53.614;9.882;2023-04-20T07:07:07;101978.25;;;8.43;83.11
21520;BME280;10921;53.614;9.882;2023-04-20T07:09:33;102017.19;;;8.71;83.37
21520;BME280;10921;53.614;9.882;2023-04-20T07:12:00;102022.66;;;8.70;83.81
21520;BME280;10921;53.614;9.882;2023-04-20T07:14:26;102007.84;;;8.66;83.79
21520;BME280;10921;53.614;9.882;2023-04-20T07:16:53;102023.38;;;8.72;83.60
21520;BME280;10921;53.614;9.882;2023-04-20T07:19:20;102030.31;;;8.74;83.42
21520;BME280;10921;53.614;9.882;2023-04-20T07:21:47;102014.75;;;8.68;83.49
21520;BME280;10921;53.614;9.882;2023-04-20T07:24:13;101976.81;;;8.52;83.69
21520;BME280;10921;53.614;9.882;2023-04-20T07:26:40;102028.31;;;8.78;83.96
21520;BME280;10921;53.614;9.882;2023-04-20T07:29:06;102030.88;;;8.79;83.95
21520;BME280;10921;53.614;9.882;2023-04-20T07:31:33;102035.34;;;8.79;83.68
21520;BME280;10921;53.614;9.882;2023-04-20T07:34:00;102035.03;;;8.84;83.52
21520;BME280;10921;53.614;9.882;2023-04-20T07:36:27;102039.28;;;8.86;83.76
21520;BME280;10921;53.614;9.882;2023-04-20T07:38:54;102038.47;;;8.86;83.71
21520;BME280;10921;53.614;9.882;2023-04-20T07:41:21;102052.59;;;8.86;83.96
21520;BME280;10921;53.614;9.882;2023-04-20T07:43:48;102047.19;;;8.88;83.80
21520;BME280;10921;53.614;9.882;2023-04-20T07:46:21;102051.34;;;8.92;84.21
21520;BME280;10921;53.614;9.882;2023-04-20T07:48:48;102041.75;;;8.89;83.37
21520;BME280;10921;53.614;9.882;2023-04-20T07:51:15;102037.28;;;8.90;83.29
21520;BME280;10921;53.614;9.882;2023-04-20T07:53:42;102035.56;;;8.89;83.98
21520;BME280;10921;53.614;9.882;2023-04-20T07:56:09;102007.84;;;8.66;83.40
21520;BME280;10921;53.614;9.882;2023-04-20T07:58:35;102001.56;;;8.67;83.74
21520;BME280;10921;53.614;9.882;2023-04-20T08:01:04;102010.50;;;8.66;83.74
21520;BME280;10921;53.614;9.882;2023-04-20T08:03:31;102042.06;;;8.85;84.04
21520;BME280;10921;53.614;9.882;2023-04-20T08:05:59;102051.53;;;8.89;84.20
21520;BME280;10921;53.614;9.882;2023-04-20T08:08:26;102015.53;;;8.70;84.06
21520;BME280;10921;53.614;9.882;2023-04-20T08:10:52;102062.00;;;8.92;84.12
21520;BME280;10921;53.614;9.882;2023-04-20T08:13:21;102036.09;;;8.81;83.68
21520;BME280;10921;53.614;9.882;2023-04-20T08:15:47;102056.56;;;8.93;84.53
21520;BME280;10921;53.614;9.882;2023-04-20T08:18:14;102060.19;;;8.92;84.30
21520;BME280;10921;53.614;9.882;2023-04-20T08:20:41;102014.75;;;8.68;84.66
21520;BME280;10921;53.614;9.882;2023-04-20T08:23:07;102054.47;;;8.98;84.87
21520;BME280;10921;53.614;9.882;2023-04-20T08:25:37;102066.19;;;8.96;84.78
21520;BME280;10921;53.614;9.882;2023-04-20T08:28:05;102076.41;;;9.02;84.36
21520;BME280;10921;53.614;9.882;2023-04-20T08:30:38;102058.56;;;8.90;84.46
21520;BME280;10921;53.614;9.882;2023-04-20T08:33:06;102083.13;;;9.07;83.85
21520;BME280;10921;53.614;9.882;2023-04-20T08:35:32;102081.44;;;9.06;83.97
21520;BME280;10921;53.614;9.882;2023-04-20T08:37:59;102074.59;;;9.02;84.07
21520;BME280;10921;53.614;9.882;2023-04-20T08:40:26;102075.34;;;9.04;84.38
21520;BME280;10921;53.614;9.882;2023-04-20T08:42:53;102069.50;;;8.99;84.37
21520;BME280;10921;53.614;9.882;2023-04-20T08:45:20;102080.88;;;9.01;85.19
21520;BME280;10921;53.614;9.882;2023-04-20T08:47:46;102070.44;;;8.98;85.37
21520;BME280;10921;53.614;9.882;2023-04-20T08:50:15;102072.06;;;9.01;85.60
21520;BME280;10921;53.614;9.882;2023-04-20T08:52:41;102063.22;;;9.00;86.17
21520;BME280;10921;53.614;9.882;2023-04-20T08:55:08;102023.66;;;8.81;86.47
21520;BME280;10921;53.614;9.882;2023-04-20T08:57:34;102060.97;;;9.07;86.81
21520;BME280;10921;53.614;9.882;2023-04-20T09:00:03;102054.31;;;9.14;87.59
21520;BME280;10921;53.614;9.882;2023-04-20T09:02:30;102055.91;;;9.16;87.44
21520;BME280;10921;53.614;9.882;2023-04-20T09:05:04;102045.97;;;9.18;88.21
21520;BME280;10921;53.614;9.882;2023-04-20T09:07:31;102061.78;;;9.34;87.45
21520;BME280;10921;53.614;9.882;2023-04-20T09:09:59;102052.22;;;9.44;87.75
21520;BME280;10921;53.614;9.882;2023-04-20T09:12:28;102045.00;;;9.46;87.10
21520;BME280;10921;53.614;9.882;2023-04-20T09:14:54;102057.03;;;9.65;86.75
21520;BME280;10921;53.614;9.882;2023-04-20T09:17:34;102057.06;;;9.77;88.72
21520;BME280;10921;53.614;9.882;2023-04-20T09:20:02;102015.78;;;9.58;87.44
21520;BME280;10921;53.614;9.882;2023-04-20T09:22:31;102052.13;;;9.84;87.38
21520;BME280;10921;53.614;9.882;2023-04-20T09:24:59;102072.25;;;10.13;87.54
21520;BME280;10921;53.614;9.882;2023-04-20T09:27:26;102039.72;;;10.08;87.27
21520;BME280;10921;53.614;9.882;2023-04-20T09:29:58;102079.59;;;10.48;87.05
21520;BME280;10921;53.614;9.882;2023-04-20T09:32:25;102068.34;;;10.55;85.49
21520;BME280;10921;53.614;9.882;2023-04-20T09:34:53;102080.25;;;10.75;83.56
21520;BME280;10921;53.614;9.882;2023-04-20T09:37:20;102088.56;;;10.83;83.10
21520;BME280;10921;53.614;9.882;2023-04-20T09:39:48;102095.78;;;10.94;82.66
21520;BME280;10921;53.614;9.882;2023-04-20T09:42:16;102101.75;;;10.98;81.01
21520;BME280;10921;53.614;9.882;2023-04-20T09:44:43;102074.25;;;10.84;80.23
21520;BME280;10921;53.614;9.882;2023-04-20T09:47:16;102099.81;;;11.00;81.15
21520;BME280;10921;53.614;9.882;2023-04-20T09:49:44;102099.41;;;10.93;79.91
21520;BME280;10921;53.614;9.882;2023-04-20T09:52:17;102095.78;;;10.94;80.24
21520;BME280;10921;53.614;9.882;2023-04-20T09:54:45;102087.34;;;10.87;79.45
21520;BME280;10921;53.614;9.882;2023-04-20T09:57:12;102040.59;;;10.58;79.37
21520;BME280;10921;53.614;9.882;2023-04-20T09:59:42;102077.47;;;10.77;80.02
21520;BME280;10921;53.614;9.882;2023-04-20T10:02:12;102048.31;;;10.74;80.55
21520;BME280;10921;53.614;9.882;2023-04-20T10:04:56;102031.06;;;10.67;80.81
21520;BME280;10921;53.614;9.882;2023-04-20T10:07:28;102023.44;;;10.49;82.23
21520;BME280;10921;53.614;9.882;2023-04-20T10:12:49;102055.78;;;10.81;84.88
21520;BME280;10921;53.614;9.882;2023-04-20T10:15:16;102052.63;;;11.11;87.99
21520;BME280;10921;53.614;9.882;2023-04-20T10:17:43;102060.38;;;11.49;89.30
21520;BME280;10921;53.614;9.882;2023-04-20T10:22:47;102063.41;;;12.24;83.90
21520;BME280;10921;53.614;9.882;2023-04-20T10:25:24;102061.19;;;12.52;81.48
21520;BME280;10921;53.614;9.882;2023-04-20T10:27:59;102081.09;;;12.81;77.62
21520;BME280;10921;53.614;9.882;2023-04-20T10:30:27;102063.75;;;12.85;75.19
21520;BME280;10921;53.614;9.882;2023-04-20T10:33:08;102073.50;;;12.97;73.87
21520;BME280;10921;53.614;9.882;2023-04-20T10:35:48;102081.06;;;12.92;73.03
21520;BME280;10921;53.614;9.882;2023-04-20T10:40:56;102091.06;;;12.79;73.87
21520;BME280;10921;53.614;9.882;2023-04-20T10:43:23;102088.88;;;12.73;73.48
21520;BME280;10921;53.614;9.882;2023-04-20T10:45:49;102063.34;;;12.58;72.98
21520;BME280;10921;53.614;9.882;2023-04-20T10:48:16;102080.16;;;12.60;74.14
21520;BME280;10921;53.614;9.882;2023-04-20T10:50:43;102060.34;;;12.40;74.30
21520;BME280;10921;53.614;9.882;2023-04-20T10:53:21;102085.16;;;12.53;74.63
21520;BME280;10921;53.614;9.882;2023-04-20T10:55:58;102076.66;;;12.48;75.16
21520;BME280;10921;53.614;9.882;2023-04-20T10:58:25;102060.22;;;12.42;74.41
21520;BME280;10921;53.614;9.882;2023-04-20T11:01:03;102063.38;;;12.47;74.87
21520;BME280;10921;53.614;9.882;2023-04-20T11:03:31;102064.00;;;12.39;75.45
21520;BME280;10921;53.614;9.882;2023-04-20T11:05:57;102051.38;;;12.30;75.86
21520;BME280;10921;53.614;9.882;2023-04-20T11:08:39;102080.06;;;12.50;76.34
21520;BME280;10921;53.614;9.882;2023-04-20T11:11:19;102080.78;;;12.52;75.36
21520;BME280;10921;53.614;9.882;2023-04-20T11:13:47;102075.28;;;12.65;74.30
21520;BME280;10921;53.614;9.882;2023-04-20T11:16:15;102069.69;;;12.57;73.49
21520;BME280;10921;53.614;9.882;2023-04-20T11:18:49;102063.25;;;12.59;74.62
21520;BME280;10921;53.614;9.882;2023-04-20T11:21:17;102061.53;;;12.58;74.17
21520;BME280;10921;53.614;9.882;2023-04-20T11:23:44;102054.34;;;12.59;73.54
21520;BME280;10921;53.614;9.882;2023-04-20T11:26:10;102061.91;;;12.65;73.45
21520;BME280;10921;53.614;9.882;2023-04-20T11:28:37;102054.31;;;12.70;74.03
21520;BME280;10921;53.614;9.882;2023-04-20T11:31:04;102054.81;;;12.75;74.72
21520;BME280;10921;53.614;9.882;2023-04-20T11:33:31;102062.59;;;12.78;72.94
21520;BME280;10921;53.614;9.882;2023-04-20T11:35:59;102049.66;;;12.83;73.20
21520;BME280;10921;53.614;9.882;2023-04-20T11:38:31;102055.38;;;12.90;72.84
21520;BME280;10921;53.614;9.882;2023-04-20T11:40:59;102064.72;;;12.95;70.85
21520;BME280;10921;53.614;9.882;2023-04-20T11:43:34;102049.16;;;12.89;71.98
21520;BME280;10921;53.614;9.882;2023-04-20T11:46:01;102039.41;;;12.88;70.97
21520;BME280;10921;53.614;9.882;2023-04-20T11:48:29;102014.13;;;12.81;70.16
21520;BME280;10921;53.614;9.882;2023-04-20T11:50:57;102063.09;;;13.04;70.82
21520;BME280;10921;53.614;9.882;2023-04-20T11:53:23;102047.63;;;13.08;71.67
21520;BME280;10921;53.614;9.882;2023-04-20T11:55:50;102047.25;;;13.12;72.15
21520;BME280;10921;53.614;9.882;2023-04-20T11:58:17;102054.19;;;13.15;71.61
21520;BME280;10921;53.614;9.882;2023-04-20T12:00:43;102005.56;;;12.87;70.82
21520;BME280;10921;53.614;9.882;2023-04-20T12:03:10;102055.38;;;13.22;70.55
21520;BME280;10921;53.614;9.882;2023-04-20T12:05:37;102059.03;;;13.21;69.92
21520;BME280;10921;53.614;9.882;2023-04-20T12:08:03;102062.09;;;13.16;71.10
21520;BME280;10921;53.614;9.882;2023-04-20T12:10:31;102065.41;;;13.09;70.70
21520;BME280;10921;53.614;9.882;2023-04-20T12:12:57;102061.66;;;13.00;70.86
21520;BME280;10921;53.614;9.882;2023-04-20T12:15:25;102058.28;;;12.87;71.62
21520;BME280;10921;53.614;9.882;2023-04-20T12:17:52;102026.59;;;12.60;72.02
21520;BME280;10921;53.614;9.882;2023-04-20T12:20:18;102069.78;;;12.78;73.07
21520;BME280;10921;53.614;9.882;2023-04-20T12:22:45;102053.50;;;12.58;73.29
21520;BME280;10921;53.614;9.882;2023-04-20T12:25:12;102065.19;;;12.57;73.86
21520;BME280;10921;53.614;9.882;2023-04-20T12:27:39;102023.53;;;12.21;73.94
21520;BME280;10921;53.614;9.882;2023-04-20T12:30:06;102081.75;;;12.40;74.16
21520;BME280;10921;53.614;9.882;2023-04-20T12:32:34;102054.53;;;12.24;74.17
21520;BME280;10921;53.614;9.882;2023-04-20T12:35:01;102079.72;;;12.21;75.23
21520;BME280;10921;53.614;9.882;2023-04-20T12:37:28;102077.28;;;12.18;75.67
21520;BME280;10921;53.614;9.882;2023-04-20T12:39:54;102076.19;;;12.10;76.04
21520;BME280;10921;53.614;9.882;2023-04-20T12:42:21;102077.25;;;12.07;76.46
21520;BME280;10921;53.614;9.882;2023-04-20T12:44:47;102067.66;;;11.93;76.53
21520;BME280;10921;53.614;9.882;2023-04-20T12:47:14;102085.91;;;12.00;76.81
21520;BME280;10921;53.614;9.882;2023-04-20T12:49:41;102084.31;;;11.97;76.83
21520;BME280;10921;53.614;9.882;2023-04-20T12:52:07;102087.84;;;11.97;76.97
21520;BME280;10921;53.614;9.882;2023-04-20T12:54:37;102074.59;;;11.96;78.41
21520;BME280;10921;53.614;9.882;2023-04-20T12:57:03;102071.09;;;12.07;79.42
21520;BME280;10921;53.614;9.882;2023-04-20T12:59:30;102068.28;;;12.19;79.68
21520;BME280;10921;53.614;9.882;2023-04-20T13:01:56;102056.94;;;12.38;80.37
21520;BME280;10921;53.614;9.882;2023-04-20T13:04:23;102058.75;;;12.49;79.14
21520;BME280;10921;53.614;9.882;2023-04-20T13:06:50;102025.25;;;12.54;77.54